Melton Mowbray, United Kingdom
Current Conditions -  °F | °C
As of 1:20 PM on Friday 19 Dec 2014 (Local Time) from EGNX Reporting Station
Few Clouds Few Clouds  
Wind Chill: 37°   Ceiling: Unl
Heat Index: 46°   Visibility: 6mi
Dew Point: 37°   Wind: 29mph
Humidity: 71%   Direction: 260°W
Pressure: 29.91"   Gusts: NA
Location:  52.76°N, 0.89°W
Report Text: EGNX 191320Z 26025KT 9999 FEW027 08/03 Q1013
Loading
Personal Weather Stations






























Interactive Weather Map New forecast layout! Learn more

10-Day Weather Forecast

Advertisements
Track Severe Weather on mobile